sensor_id;sensor_type;location;lat;lon;timestamp;P1;durP1;ratioP1;P2;durP2;ratioP2
8871;SDS011;4472;52.092;9.820;2023-08-06T00:02:03;7.33;;;3.37;;
8871;SDS011;4472;52.092;9.820;2023-08-06T00:04:50;4.13;;;3.43;;
8871;SDS011;4472;52.092;9.820;2023-08-06T00:07:38;4.23;;;3.83;;
8871;SDS011;4472;52.092;9.820;2023-08-06T00:10:26;4.90;;;3.63;;
8871;SDS011;4472;52.092;9.820;2023-08-06T00:13:13;3.63;;;3.33;;
8871;SDS011;4472;52.092;9.820;2023-08-06T00:16:10;5.43;;;3.30;;
8871;SDS011;4472;52.092;9.820;2023-08-06T00:18:58;4.27;;;3.80;;
8871;SDS011;4472;52.092;9.820;2023-08-06T00:21:45;6.20;;;3.90;;
8871;SDS011;4472;52.092;9.820;2023-08-06T00:24:32;4.30;;;3.80;;
8871;SDS011;4472;52.092;9.820;2023-08-06T00:27:21;4.07;;;3.67;;
8871;SDS011;4472;52.092;9.820;2023-08-06T00:30:09;3.83;;;3.47;;
8871;SDS011;4472;52.092;9.820;2023-08-06T00:32:57;4.30;;;3.83;;
8871;SDS011;4472;52.092;9.820;2023-08-06T00:35:44;4.10;;;3.80;;
8871;SDS011;4472;52.092;9.820;2023-08-06T00:38:32;4.27;;;3.70;;
8871;SDS011;4472;52.092;9.820;2023-08-06T00:41:19;8.83;;;4.40;;
8871;SDS011;4472;52.092;9.820;2023-08-06T00:44:07;7.20;;;4.50;;
8871;SDS011;4472;52.092;9.820;2023-08-06T00:46:55;5.40;;;3.50;;
8871;SDS011;4472;52.092;9.820;2023-08-06T00:49:42;5.23;;;4.10;;
8871;SDS011;4472;52.092;9.820;2023-08-06T00:52:30;5.27;;;4.03;;
8871;SDS011;4472;52.092;9.820;2023-08-06T00:55:17;6.00;;;3.87;;
8871;SDS011;4472;52.092;9.820;2023-08-06T00:58:04;5.80;;;4.43;;
8871;SDS011;4472;52.092;9.820;2023-08-06T01:00:53;10.37;;;4.70;;
8871;SDS011;4472;52.092;9.820;2023-08-06T01:03:40;6.67;;;4.20;;
8871;SDS011;4472;52.092;9.820;2023-08-06T01:06:30;6.53;;;4.63;;
8871;SDS011;4472;52.092;9.820;2023-08-06T01:09:28;7.57;;;4.43;;
8871;SDS011;4472;52.092;9.820;2023-08-06T01:12:32;7.47;;;4.80;;
8871;SDS011;4472;52.092;9.820;2023-08-06T01:15:29;7.07;;;4.50;;
8871;SDS011;4472;52.092;9.820;2023-08-06T01:18:22;5.57;;;4.00;;
8871;SDS011;4472;52.092;9.820;2023-08-06T01:21:11;7.00;;;4.00;;
8871;SDS011;4472;52.092;9.820;2023-08-06T01:23:58;4.20;;;3.80;;
8871;SDS011;4472;52.092;9.820;2023-08-06T01:26:48;7.90;;;4.20;;
8871;SDS011;4472;52.092;9.820;2023-08-06T01:29:41;7.80;;;4.50;;
8871;SDS011;4472;52.092;9.820;2023-08-06T01:32:34;10.83;;;4.17;;
8871;SDS011;4472;52.092;9.820;2023-08-06T01:35:25;6.50;;;4.47;;
8871;SDS011;4472;52.092;9.820;2023-08-06T01:38:15;5.60;;;3.90;;
8871;SDS011;4472;52.092;9.820;2023-08-06T01:41:02;5.67;;;4.57;;
8871;SDS011;4472;52.092;9.820;2023-08-06T01:43:49;7.83;;;4.33;;
8871;SDS011;4472;52.092;9.820;2023-08-06T01:46:37;6.03;;;4.27;;
8871;SDS011;4472;52.092;9.820;2023-08-06T01:49:24;5.70;;;3.90;;
8871;SDS011;4472;52.092;9.820;2023-08-06T01:52:11;4.83;;;3.83;;
8871;SDS011;4472;52.092;9.820;2023-08-06T01:55:00;7.47;;;3.80;;
8871;SDS011;4472;52.092;9.820;2023-08-06T01:57:47;4.27;;;3.83;;
8871;SDS011;4472;52.092;9.820;2023-08-06T02:00:34;4.70;;;4.07;;
8871;SDS011;4472;52.092;9.820;2023-08-06T02:03:21;4.67;;;4.00;;
8871;SDS011;4472;52.092;9.820;2023-08-06T02:06:09;6.07;;;4.13;;
8871;SDS011;4472;52.092;9.820;2023-08-06T02:08:56;5.07;;;3.90;;
8871;SDS011;4472;52.092;9.820;2023-08-06T02:11:44;5.93;;;4.00;;
8871;SDS011;4472;52.092;9.820;2023-08-06T02:14:32;6.37;;;4.60;;
8871;SDS011;4472;52.092;9.820;2023-08-06T02:17:19;6.30;;;4.97;;
8871;SDS011;4472;52.092;9.820;2023-08-06T02:20:07;6.13;;;5.10;;
8871;SDS011;4472;52.092;9.820;2023-08-06T02:22:55;5.40;;;4.00;;
8871;SDS011;4472;52.092;9.820;2023-08-06T02:25:42;5.87;;;4.90;;
8871;SDS011;4472;52.092;9.820;2023-08-06T02:28:31;5.87;;;5.10;;
8871;SDS011;4472;52.092;9.820;2023-08-06T02:31:18;7.20;;;4.90;;
8871;SDS011;4472;52.092;9.820;2023-08-06T02:34:05;9.30;;;5.30;;
8871;SDS011;4472;52.092;9.820;2023-08-06T02:36:53;7.40;;;5.77;;
8871;SDS011;4472;52.092;9.820;2023-08-06T02:39:40;6.77;;;5.83;;
8871;SDS011;4472;52.092;9.820;2023-08-06T02:42:28;11.37;;;6.57;;
8871;SDS011;4472;52.092;9.820;2023-08-06T02:45:16;8.93;;;6.77;;
8871;SDS011;4472;52.092;9.820;2023-08-06T02:48:04;9.33;;;7.27;;
8871;SDS011;4472;52.092;9.820;2023-08-06T02:50:51;8.23;;;7.00;;
8871;SDS011;4472;52.092;9.820;2023-08-06T02:53:38;8.80;;;7.13;;
8871;SDS011;4472;52.092;9.820;2023-08-06T02:56:26;9.20;;;6.87;;
8871;SDS011;4472;52.092;9.820;2023-08-06T02:59:13;12.07;;;7.00;;
8871;SDS011;4472;52.092;9.820;2023-08-06T03:02:01;8.80;;;6.53;;
8871;SDS011;4472;52.092;9.820;2023-08-06T03:04:49;7.13;;;6.37;;
8871;SDS011;4472;52.092;9.820;2023-08-06T03:07:36;8.60;;;7.00;;
8871;SDS011;4472;52.092;9.820;2023-08-06T03:10:23;8.50;;;7.37;;
8871;SDS011;4472;52.092;9.820;2023-08-06T03:13:11;9.40;;;7.57;;
8871;SDS011;4472;52.092;9.820;2023-08-06T03:15:58;10.13;;;7.40;;
8871;SDS011;4472;52.092;9.820;2023-08-06T03:18:47;8.37;;;7.37;;
8871;SDS011;4472;52.092;9.820;2023-08-06T03:21:34;13.20;;;7.80;;
8871;SDS011;4472;52.092;9.820;2023-08-06T03:24:21;8.10;;;6.83;;
8871;SDS011;4472;52.092;9.820;2023-08-06T03:27:09;13.43;;;7.40;;
8871;SDS011;4472;52.092;9.820;2023-08-06T03:29:56;13.37;;;7.80;;
8871;SDS011;4472;52.092;9.820;2023-08-06T03:32:43;11.77;;;7.83;;
8871;SDS011;4472;52.092;9.820;2023-08-06T03:35:33;9.50;;;7.23;;
8871;SDS011;4472;52.092;9.820;2023-08-06T03:38:21;9.97;;;7.50;;
8871;SDS011;4472;52.092;9.820;2023-08-06T03:41:08;16.43;;;7.77;;
8871;SDS011;4472;52.092;9.820;2023-08-06T03:43:56;10.20;;;7.63;;
8871;SDS011;4472;52.092;9.820;2023-08-06T03:46:43;15.67;;;8.30;;
8871;SDS011;4472;52.092;9.820;2023-08-06T03:49:30;13.67;;;7.70;;
8871;SDS011;4472;52.092;9.820;2023-08-06T03:52:19;12.20;;;7.37;;
8871;SDS011;4472;52.092;9.820;2023-08-06T03:55:06;14.97;;;7.93;;
8871;SDS011;4472;52.092;9.820;2023-08-06T03:57:54;9.57;;;6.77;;
8871;SDS011;4472;52.092;9.820;2023-08-06T04:00:41;7.70;;;6.13;;
8871;SDS011;4472;52.092;9.820;2023-08-06T04:03:28;12.70;;;6.60;;
8871;SDS011;4472;52.092;9.820;2023-08-06T04:06:15;8.30;;;5.57;;
8871;SDS011;4472;52.092;9.820;2023-08-06T04:09:10;11.03;;;6.13;;
8871;SDS011;4472;52.092;9.820;2023-08-06T04:11:57;8.90;;;5.87;;
8871;SDS011;4472;52.092;9.820;2023-08-06T04:14:46;10.23;;;6.10;;
8871;SDS011;4472;52.092;9.820;2023-08-06T04:17:34;12.17;;;5.93;;
8871;SDS011;4472;52.092;9.820;2023-08-06T04:20:21;8.63;;;5.90;;
8871;SDS011;4472;52.092;9.820;2023-08-06T04:23:08;7.50;;;5.60;;
8871;SDS011;4472;52.092;9.820;2023-08-06T04:25:57;9.27;;;5.20;;
8871;SDS011;4472;52.092;9.820;2023-08-06T04:28:45;9.90;;;5.47;;
8871;SDS011;4472;52.092;9.820;2023-08-06T04:31:32;10.93;;;6.10;;
8871;SDS011;4472;52.092;9.820;2023-08-06T04:34:19;8.33;;;4.80;;
8871;SDS011;4472;52.092;9.820;2023-08-06T04:37:06;11.67;;;5.23;;
8871;SDS011;4472;52.092;9.820;2023-08-06T04:39:54;8.73;;;5.07;;
8871;SDS011;4472;52.092;9.820;2023-08-06T04:42:42;5.53;;;4.70;;
8871;SDS011;4472;52.092;9.820;2023-08-06T04:45:29;4.80;;;4.37;;
8871;SDS011;4472;52.092;9.820;2023-08-06T04:48:16;5.50;;;4.30;;
8871;SDS011;4472;52.092;9.820;2023-08-06T04:51:04;6.60;;;4.77;;
8871;SDS011;4472;52.092;9.820;2023-08-06T04:53:51;8.57;;;4.53;;
8871;SDS011;4472;52.092;9.820;2023-08-06T04:56:38;7.07;;;4.77;;
8871;SDS011;4472;52.092;9.820;2023-08-06T04:59:27;9.03;;;5.20;;
8871;SDS011;4472;52.092;9.820;2023-08-06T05:02:14;7.53;;;5.30;;
8871;SDS011;4472;52.092;9.820;2023-08-06T05:05:01;10.13;;;6.07;;
8871;SDS011;4472;52.092;9.820;2023-08-06T05:07:49;6.53;;;5.53;;
8871;SDS011;4472;52.092;9.820;2023-08-06T05:10:36;7.30;;;5.77;;
8871;SDS011;4472;52.092;9.820;2023-08-06T05:13:23;8.83;;;5.47;;
8871;SDS011;4472;52.092;9.820;2023-08-06T05:16:12;8.77;;;5.73;;
8871;SDS011;4472;52.092;9.820;2023-08-06T05:18:59;5.70;;;5.17;;
8871;SDS011;4472;52.092;9.820;2023-08-06T05:21:46;7.03;;;6.10;;
8871;SDS011;4472;52.092;9.820;2023-08-06T05:24:33;7.10;;;5.57;;
8871;SDS011;4472;52.092;9.820;2023-08-06T05:27:20;6.63;;;5.70;;
8871;SDS011;4472;52.092;9.820;2023-08-06T05:30:08;6.27;;;5.73;;
8871;SDS011;4472;52.092;9.820;2023-08-06T05:32:57;6.67;;;5.93;;
8871;SDS011;4472;52.092;9.820;2023-08-06T05:35:44;6.47;;;5.60;;
8871;SDS011;4472;52.092;9.820;2023-08-06T05:38:31;6.53;;;5.80;;
8871;SDS011;4472;52.092;9.820;2023-08-06T05:41:19;7.80;;;5.53;;
8871;SDS011;4472;52.092;9.820;2023-08-06T05:44:06;13.83;;;6.27;;
8871;SDS011;4472;52.092;9.820;2023-08-06T05:46:53;12.63;;;5.57;;
8871;SDS011;4472;52.092;9.820;2023-08-06T05:49:42;6.47;;;5.50;;
8871;SDS011;4472;52.092;9.820;2023-08-06T05:52:29;6.17;;;4.67;;
8871;SDS011;4472;52.092;9.820;2023-08-06T05:55:16;7.63;;;4.90;;
8871;SDS011;4472;52.092;9.820;2023-08-06T05:58:03;5.33;;;4.47;;
8871;SDS011;4472;52.092;9.820;2023-08-06T06:00:50;9.83;;;5.17;;
8871;SDS011;4472;52.092;9.820;2023-08-06T06:03:38;6.30;;;5.17;;
8871;SDS011;4472;52.092;9.820;2023-08-06T06:06:26;6.33;;;5.37;;
8871;SDS011;4472;52.092;9.820;2023-08-06T06:09:14;5.20;;;4.77;;
8871;SDS011;4472;52.092;9.820;2023-08-06T06:12:01;5.87;;;5.20;;
8871;SDS011;4472;52.092;9.820;2023-08-06T06:14:48;7.17;;;4.83;;
8871;SDS011;4472;52.092;9.820;2023-08-06T06:17:35;9.97;;;4.70;;
8871;SDS011;4472;52.092;9.820;2023-08-06T06:20:22;5.27;;;4.73;;
8871;SDS011;4472;52.092;9.820;2023-08-06T06:23:11;5.07;;;4.37;;
8871;SDS011;4472;52.092;9.820;2023-08-06T06:25:59;4.40;;;4.00;;
8871;SDS011;4472;52.092;9.820;2023-08-06T06:28:46;6.10;;;4.50;;
8871;SDS011;4472;52.092;9.820;2023-08-06T06:31:33;8.53;;;4.30;;
8871;SDS011;4472;52.092;9.820;2023-08-06T06:34:20;4.83;;;3.50;;
8871;SDS011;4472;52.092;9.820;2023-08-06T06:37:07;5.50;;;4.00;;
8871;SDS011;4472;52.092;9.820;2023-08-06T06:39:56;8.23;;;4.27;;
8871;SDS011;4472;52.092;9.820;2023-08-06T06:42:43;3.83;;;3.40;;
8871;SDS011;4472;52.092;9.820;2023-08-06T06:45:30;6.20;;;3.57;;
8871;SDS011;4472;52.092;9.820;2023-08-06T06:48:17;3.80;;;3.50;;
8871;SDS011;4472;52.092;9.820;2023-08-06T06:51:04;4.03;;;3.67;;
8871;SDS011;4472;52.092;9.820;2023-08-06T06:53:51;3.57;;;3.20;;
8871;SDS011;4472;52.092;9.820;2023-08-06T06:56:40;3.97;;;2.90;;
8871;SDS011;4472;52.092;9.820;2023-08-06T06:59:28;3.20;;;3.00;;
8871;SDS011;4472;52.092;9.820;2023-08-06T07:02:15;3.93;;;3.40;;
8871;SDS011;4472;52.092;9.820;2023-08-06T07:05:02;4.90;;;3.30;;
8871;SDS011;4472;52.092;9.820;2023-08-06T07:07:49;4.17;;;3.60;;
8871;SDS011;4472;52.092;9.820;2023-08-06T07:10:40;3.60;;;3.23;;
8871;SDS011;4472;52.092;9.820;2023-08-06T07:13:29;5.63;;;3.20;;
8871;SDS011;4472;52.092;9.820;2023-08-06T07:16:16;4.03;;;3.10;;
8871;SDS011;4472;52.092;9.820;2023-08-06T07:19:04;3.47;;;3.23;;
8871;SDS011;4472;52.092;9.820;2023-08-06T07:21:52;3.13;;;2.87;;
8871;SDS011;4472;52.092;9.820;2023-08-06T07:24:41;2.80;;;2.60;;
8871;SDS011;4472;52.092;9.820;2023-08-06T07:27:28;5.87;;;2.77;;
8871;SDS011;4472;52.092;9.820;2023-08-06T07:30:16;3.30;;;3.00;;
8871;SDS011;4472;52.092;9.820;2023-08-06T07:33:04;4.50;;;3.07;;
8871;SDS011;4472;52.092;9.820;2023-08-06T07:35:51;3.43;;;2.70;;
8871;SDS011;4472;52.092;9.820;2023-08-06T07:38:38;3.70;;;2.40;;
8871;SDS011;4472;52.092;9.820;2023-08-06T07:41:26;3.30;;;2.80;;
8871;SDS011;4472;52.092;9.820;2023-08-06T07:44:13;5.03;;;3.40;;
8871;SDS011;4472;52.092;9.820;2023-08-06T07:47:01;3.63;;;3.00;;
8871;SDS011;4472;52.092;9.820;2023-08-06T07:49:49;3.10;;;2.80;;
8871;SDS011;4472;52.092;9.820;2023-08-06T07:52:36;3.20;;;2.90;;
8871;SDS011;4472;52.092;9.820;2023-08-06T07:55:23;3.50;;;3.20;;
8871;SDS011;4472;52.092;9.820;2023-08-06T07:58:10;2.90;;;2.70;;
8871;SDS011;4472;52.092;9.820;2023-08-06T08:00:57;3.40;;;3.10;;
8871;SDS011;4472;52.092;9.820;2023-08-06T08:03:46;3.30;;;2.70;;
8871;SDS011;4472;52.092;9.820;2023-08-06T08:06:33;3.93;;;3.00;;
8871;SDS011;4472;52.092;9.820;2023-08-06T08:09:20;3.67;;;3.37;;
8871;SDS011;4472;52.092;9.820;2023-08-06T08:12:07;5.30;;;2.87;;
8871;SDS011;4472;52.092;9.820;2023-08-06T08:14:57;3.00;;;2.67;;
8871;SDS011;4472;52.092;9.820;2023-08-06T08:17:44;5.27;;;2.83;;
8871;SDS011;4472;52.092;9.820;2023-08-06T08:20:34;3.43;;;3.13;;
8871;SDS011;4472;52.092;9.820;2023-08-06T08:23:21;4.20;;;2.97;;
8871;SDS011;4472;52.092;9.820;2023-08-06T08:26:08;3.17;;;2.97;;
8871;SDS011;4472;52.092;9.820;2023-08-06T08:28:56;3.23;;;2.90;;
8871;SDS011;4472;52.092;9.820;2023-08-06T08:31:43;3.27;;;3.00;;
8871;SDS011;4472;52.092;9.820;2023-08-06T08:34:30;3.10;;;2.80;;
8871;SDS011;4472;52.092;9.820;2023-08-06T08:37:19;3.07;;;2.77;;
8871;SDS011;4472;52.092;9.820;2023-08-06T08:40:06;3.00;;;2.80;;
8871;SDS011;4472;52.092;9.820;2023-08-06T08:42:54;3.40;;;3.10;;
8871;SDS011;4472;52.092;9.820;2023-08-06T08:45:43;5.70;;;3.20;;
8871;SDS011;4472;52.092;9.820;2023-08-06T08:48:36;4.87;;;3.10;;
8871;SDS011;4472;52.092;9.820;2023-08-06T08:51:23;3.73;;;3.43;;
8871;SDS011;4472;52.092;9.820;2023-08-06T08:54:12;5.57;;;4.00;;
8871;SDS011;4472;52.092;9.820;2023-08-06T08:57:02;4.23;;;3.30;;
8871;SDS011;4472;52.092;9.820;2023-08-06T08:59:49;3.30;;;3.00;;
8871;SDS011;4472;52.092;9.820;2023-08-06T09:02:37;3.50;;;3.30;;
8871;SDS011;4472;52.092;9.820;2023-08-06T09:05:25;3.10;;;2.80;;
8871;SDS011;4472;52.092;9.820;2023-08-06T09:08:17;4.67;;;4.20;;
8871;SDS011;4472;52.092;9.820;2023-08-06T09:11:09;3.60;;;3.40;;
8871;SDS011;4472;52.092;9.820;2023-08-06T09:13:57;6.20;;;4.60;;
8871;SDS011;4472;52.092;9.820;2023-08-06T09:16:45;3.43;;;3.20;;
8871;SDS011;4472;52.092;9.820;2023-08-06T09:19:33;5.93;;;4.00;;
8871;SDS011;4472;52.092;9.820;2023-08-06T09:22:20;3.30;;;3.00;;
8871;SDS011;4472;52.092;9.820;2023-08-06T09:25:07;3.37;;;3.10;;
8871;SDS011;4472;52.092;9.820;2023-08-06T09:27:57;5.23;;;2.70;;
8871;SDS011;4472;52.092;9.820;2023-08-06T09:30:44;3.40;;;2.90;;
8871;SDS011;4472;52.092;9.820;2023-08-06T09:33:35;3.23;;;2.77;;
8871;SDS011;4472;52.092;9.820;2023-08-06T09:36:23;7.57;;;3.20;;
8871;SDS011;4472;52.092;9.820;2023-08-06T09:39:12;3.50;;;3.20;;
8871;SDS011;4472;52.092;9.820;2023-08-06T09:42:01;3.93;;;3.00;;
8871;SDS011;4472;52.092;9.820;2023-08-06T09:44:50;3.00;;;2.70;;
8871;SDS011;4472;52.092;9.820;2023-08-06T09:47:37;3.20;;;2.93;;
8871;SDS011;4472;52.092;9.820;2023-08-06T09:50:27;6.43;;;3.00;;
8871;SDS011;4472;52.092;9.820;2023-08-06T09:53:16;3.47;;;3.17;;
8871;SDS011;4472;52.092;9.820;2023-08-06T09:56:05;5.13;;;3.10;;
8871;SDS011;4472;52.092;9.820;2023-08-06T09:58:52;3.03;;;2.77;;
8871;SDS011;4472;52.092;9.820;2023-08-06T10:01:41;4.80;;;2.90;;
8871;SDS011;4472;52.092;9.820;2023-08-06T10:04:30;3.00;;;2.80;;
8871;SDS011;4472;52.092;9.820;2023-08-06T10:07:17;2.90;;;2.70;;
8871;SDS011;4472;52.092;9.820;2023-08-06T10:10:05;3.93;;;3.10;;
8871;SDS011;4472;52.092;9.820;2023-08-06T10:12:54;3.67;;;2.57;;
8871;SDS011;4472;52.092;9.820;2023-08-06T10:15:43;2.40;;;2.30;;
8871;SDS011;4472;52.092;9.820;2023-08-06T10:18:33;3.20;;;2.50;;
8871;SDS011;4472;52.092;9.820;2023-08-06T10:21:23;2.50;;;2.30;;
8871;SDS011;4472;52.092;9.820;2023-08-06T10:24:16;3.40;;;2.83;;
8871;SDS011;4472;52.092;9.820;2023-08-06T10:27:03;4.30;;;2.40;;
8871;SDS011;4472;52.092;9.820;2023-08-06T10:29:53;2.80;;;2.53;;
8871;SDS011;4472;52.092;9.820;2023-08-06T10:32:46;2.50;;;2.30;;
8871;SDS011;4472;52.092;9.820;2023-08-06T10:35:36;5.37;;;2.37;;
8871;SDS011;4472;52.092;9.820;2023-08-06T10:38:25;2.43;;;2.17;;
8871;SDS011;4472;52.092;9.820;2023-08-06T10:41:21;2.50;;;2.30;;
8871;SDS011;4472;52.092;9.820;2023-08-06T10:44:10;27.07;;;8.00;;
8871;SDS011;4472;52.092;9.820;2023-08-06T10:46:57;23.73;;;7.40;;
8871;SDS011;4472;52.092;9.820;2023-08-06T10:50:15;24.20;;;8.83;;
8871;SDS011;4472;52.092;9.820;2023-08-06T10:53:04;17.10;;;6.17;;
8871;SDS011;4472;52.092;9.820;2023-08-06T10:55:53;11.07;;;4.93;;
8871;SDS011;4472;52.092;9.820;2023-08-06T10:58:40;17.93;;;6.43;;
8871;SDS011;4472;52.092;9.820;2023-08-06T11:01:28;10.07;;;4.90;;
8871;SDS011;4472;52.092;9.820;2023-08-06T11:04:16;3.97;;;2.73;;
8871;SDS011;4472;52.092;9.820;2023-08-06T11:07:03;31.60;;;11.30;;
8871;SDS011;4472;52.092;9.820;2023-08-06T11:09:54;13.03;;;5.07;;
8871;SDS011;4472;52.092;9.820;2023-08-06T11:12:48;3.77;;;2.53;;
8871;SDS011;4472;52.092;9.820;2023-08-06T11:15:35;28.20;;;9.60;;
8871;SDS011;4472;52.092;9.820;2023-08-06T11:18:22;24.37;;;8.83;;
8871;SDS011;4472;52.092;9.820;2023-08-06T11:21:09;18.97;;;7.37;;
8871;SDS011;4472;52.092;9.820;2023-08-06T11:23:57;22.97;;;8.43;;
8871;SDS011;4472;52.092;9.820;2023-08-06T11:26:46;2.30;;;2.10;;
8871;SDS011;4472;52.092;9.820;2023-08-06T11:29:36;2.50;;;2.13;;
8871;SDS011;4472;52.092;9.820;2023-08-06T11:32:24;6.83;;;3.90;;
8871;SDS011;4472;52.092;9.820;2023-08-06T11:35:13;2.40;;;2.20;;
8871;SDS011;4472;52.092;9.820;2023-08-06T11:38:01;12.40;;;5.60;;
8871;SDS011;4472;52.092;9.820;2023-08-06T11:40:48;4.87;;;2.53;;
8871;SDS011;4472;52.092;9.820;2023-08-06T11:43:38;2.53;;;2.33;;
8871;SDS011;4472;52.092;9.820;2023-08-06T11:46:26;4.33;;;3.33;;
8871;SDS011;4472;52.092;9.820;2023-08-06T11:49:13;14.77;;;6.77;;
8871;SDS011;4472;52.092;9.820;2023-08-06T11:52:00;4.53;;;3.13;;
8871;SDS011;4472;52.092;9.820;2023-08-06T11:55:01;25.67;;;10.57;;
8871;SDS011;4472;52.092;9.820;2023-08-06T11:57:52;3.13;;;2.20;;
8871;SDS011;4472;52.092;9.820;2023-08-06T12:00:41;2.57;;;2.37;;
8871;SDS011;4472;52.092;9.820;2023-08-06T12:03:29;2.87;;;2.30;;
8871;SDS011;4472;52.092;9.820;2023-08-06T12:06:16;2.63;;;2.10;;
8871;SDS011;4472;52.092;9.820;2023-08-06T12:09:04;5.00;;;3.17;;
8871;SDS011;4472;52.092;9.820;2023-08-06T12:11:51;16.73;;;7.37;;
8871;SDS011;4472;52.092;9.820;2023-08-06T12:14:38;8.17;;;3.77;;
8871;SDS011;4472;52.092;9.820;2023-08-06T12:17:27;13.33;;;6.30;;
8871;SDS011;4472;52.092;9.820;2023-08-06T12:20:14;2.30;;;2.10;;
8871;SDS011;4472;52.092;9.820;2023-08-06T12:23:02;4.17;;;2.03;;
8871;SDS011;4472;52.092;9.820;2023-08-06T12:25:49;2.10;;;2.00;;
8871;SDS011;4472;52.092;9.820;2023-08-06T12:28:36;2.10;;;2.00;;
8871;SDS011;4472;52.092;9.820;2023-08-06T12:31:23;2.23;;;2.03;;
8871;SDS011;4472;52.092;9.820;2023-08-06T12:34:11;3.03;;;2.50;;
8871;SDS011;4472;52.092;9.820;2023-08-06T12:36:59;2.40;;;2.20;;
8871;SDS011;4472;52.092;9.820;2023-08-06T12:39:46;3.70;;;2.40;;
8871;SDS011;4472;52.092;9.820;2023-08-06T12:42:33;1.93;;;1.83;;
8871;SDS011;4472;52.092;9.820;2023-08-06T12:45:20;2.90;;;2.40;;
8871;SDS011;4472;52.092;9.820;2023-08-06T12:48:08;8.93;;;4.43;;
8871;SDS011;4472;52.092;9.820;2023-08-06T12:50:57;5.43;;;3.70;;
8871;SDS011;4472;52.092;9.820;2023-08-06T12:53:44;16.00;;;7.27;;
8871;SDS011;4472;52.092;9.820;2023-08-06T12:56:31;19.07;;;8.03;;
8871;SDS011;4472;52.092;9.820;2023-08-06T12:59:19;16.67;;;7.67;;
8871;SDS011;4472;52.092;9.820;2023-08-06T13:02:06;4.17;;;2.70;;
8871;SDS011;4472;52.092;9.820;2023-08-06T13:04:54;2.10;;;2.00;;
8871;SDS011;4472;52.092;9.820;2023-08-06T13:07:42;6.87;;;4.00;;
8871;SDS011;4472;52.092;9.820;2023-08-06T13:10:29;1.93;;;1.73;;
8871;SDS011;4472;52.092;9.820;2023-08-06T13:13:16;3.17;;;2.73;;
8871;SDS011;4472;52.092;9.820;2023-08-06T13:16:04;4.27;;;2.97;;
8871;SDS011;4472;52.092;9.820;2023-08-06T13:18:51;2.17;;;1.97;;
8871;SDS011;4472;52.092;9.820;2023-08-06T13:21:58;2.10;;;1.90;;
8871;SDS011;4472;52.092;9.820;2023-08-06T13:24:52;2.20;;;2.00;;
8871;SDS011;4472;52.092;9.820;2023-08-06T13:27:39;3.17;;;2.87;;
8871;SDS011;4472;52.092;9.820;2023-08-06T13:30:26;12.17;;;5.80;;
8871;SDS011;4472;52.092;9.820;2023-08-06T13:33:13;2.40;;;2.03;;
8871;SDS011;4472;52.092;9.820;2023-08-06T13:36:00;3.07;;;2.40;;
8871;SDS011;4472;52.092;9.820;2023-08-06T13:38:47;2.47;;;2.27;;
8871;SDS011;4472;52.092;9.820;2023-08-06T13:41:36;2.90;;;2.70;;
8871;SDS011;4472;52.092;9.820;2023-08-06T13:44:24;2.80;;;2.60;;
8871;SDS011;4472;52.092;9.820;2023-08-06T13:47:11;3.03;;;2.80;;
8871;SDS011;4472;52.092;9.820;2023-08-06T13:49:58;3.97;;;2.90;;
8871;SDS011;4472;52.092;9.820;2023-08-06T13:52:45;6.00;;;3.17;;
8871;SDS011;4472;52.092;9.820;2023-08-06T13:55:32;3.50;;;3.10;;
8871;SDS011;4472;52.092;9.820;2023-08-06T13:58:21;3.07;;;2.77;;
8871;SDS011;4472;52.092;9.820;2023-08-06T14:01:09;3.30;;;2.50;;
8871;SDS011;4472;52.092;9.820;2023-08-06T14:03:58;3.93;;;2.73;;
8871;SDS011;4472;52.092;9.820;2023-08-06T14:06:45;3.60;;;2.50;;
8871;SDS011;4472;52.092;9.820;2023-08-06T14:09:32;2.87;;;2.57;;
8871;SDS011;4472;52.092;9.820;2023-08-06T14:12:20;3.50;;;3.20;;
8871;SDS011;4472;52.092;9.820;2023-08-06T14:15:10;3.67;;;2.40;;
8871;SDS011;4472;52.092;9.820;2023-08-06T14:17:57;2.70;;;2.50;;
8871;SDS011;4472;52.092;9.820;2023-08-06T14:20:44;2.40;;;2.20;;
8871;SDS011;4472;52.092;9.820;2023-08-06T14:23:31;2.60;;;2.40;;
8871;SDS011;4472;52.092;9.820;2023-08-06T14:26:18;3.90;;;2.47;;
8871;SDS011;4472;52.092;9.820;2023-08-06T14:29:06;2.27;;;2.10;;
8871;SDS011;4472;52.092;9.820;2023-08-06T14:31:54;4.37;;;2.30;;
8871;SDS011;4472;52.092;9.820;2023-08-06T14:34:41;2.70;;;2.50;;
8871;SDS011;4472;52.092;9.820;2023-08-06T14:37:28;2.30;;;2.10;;
8871;SDS011;4472;52.092;9.820;2023-08-06T14:40:19;3.30;;;2.30;;
8871;SDS011;4472;52.092;9.820;2023-08-06T14:43:06;2.57;;;2.37;;
8871;SDS011;4472;52.092;9.820;2023-08-06T14:45:53;4.70;;;2.43;;
8871;SDS011;4472;52.092;9.820;2023-08-06T14:48:41;2.47;;;2.30;;
8871;SDS011;4472;52.092;9.820;2023-08-06T14:51:29;1.90;;;1.80;;
8871;SDS011;4472;52.092;9.820;2023-08-06T14:54:16;2.23;;;2.10;;
8871;SDS011;4472;52.092;9.820;2023-08-06T14:57:03;2.47;;;2.00;;
8871;SDS011;4472;52.092;9.820;2023-08-06T14:59:51;2.00;;;1.90;;
8871;SDS011;4472;52.092;9.820;2023-08-06T15:02:38;2.13;;;2.03;;
8871;SDS011;4472;52.092;9.820;2023-08-06T15:05:26;2.50;;;2.30;;
8871;SDS011;4472;52.092;9.820;2023-08-06T15:08:13;2.77;;;2.50;;
8871;SDS011;4472;52.092;9.820;2023-08-06T15:11:01;2.57;;;2.37;;
8871;SDS011;4472;52.092;9.820;2023-08-06T15:13:48;3.63;;;2.60;;
8871;SDS011;4472;52.092;9.820;2023-08-06T15:16:35;2.87;;;2.67;;
8871;SDS011;4472;52.092;9.820;2023-08-06T15:19:23;3.00;;;2.60;;
8871;SDS011;4472;52.092;9.820;2023-08-06T15:22:11;2.70;;;2.50;;
8871;SDS011;4472;52.092;9.820;2023-08-06T15:24:59;3.13;;;2.83;;
8871;SDS011;4472;52.092;9.820;2023-08-06T15:27:47;3.00;;;2.80;;
8871;SDS011;4472;52.092;9.820;2023-08-06T15:30:34;3.17;;;2.97;;
8871;SDS011;4472;52.092;9.820;2023-08-06T15:33:21;2.83;;;2.53;;
8871;SDS011;4472;52.092;9.820;2023-08-06T15:36:08;2.97;;;2.77;;
8871;SDS011;4472;52.092;9.820;2023-08-06T15:38:57;3.23;;;2.93;;
8871;SDS011;4472;52.092;9.820;2023-08-06T15:41:44;3.90;;;3.40;;
8871;SDS011;4472;52.092;9.820;2023-08-06T15:44:31;3.87;;;2.50;;
8871;SDS011;4472;52.092;9.820;2023-08-06T15:47:18;2.70;;;2.47;;
8871;SDS011;4472;52.092;9.820;2023-08-06T15:50:06;2.80;;;2.60;;
8871;SDS011;4472;52.092;9.820;2023-08-06T15:52:54;2.70;;;2.50;;
8871;SDS011;4472;52.092;9.820;2023-08-06T15:55:43;2.83;;;2.63;;
8871;SDS011;4472;52.092;9.820;2023-08-06T15:58:32;3.00;;;2.80;;
8871;SDS011;4472;52.092;9.820;2023-08-06T16:01:19;3.93;;;2.57;;
8871;SDS011;4472;52.092;9.820;2023-08-06T16:04:06;2.70;;;2.50;;
8871;SDS011;4472;52.092;9.820;2023-08-06T16:06:53;2.37;;;2.27;;
8871;SDS011;4472;52.092;9.820;2023-08-06T16:09:41;3.53;;;2.10;;
8871;SDS011;4472;52.092;9.820;2023-08-06T16:12:30;2.23;;;2.13;;
8871;SDS011;4472;52.092;9.820;2023-08-06T16:15:17;2.40;;;2.20;;
8871;SDS011;4472;52.092;9.820;2023-08-06T16:18:05;2.00;;;1.90;;
8871;SDS011;4472;52.092;9.820;2023-08-06T16:20:53;2.53;;;2.33;;
8871;SDS011;4472;52.092;9.820;2023-08-06T16:23:40;2.13;;;2.00;;
8871;SDS011;4472;52.092;9.820;2023-08-06T16:26:28;2.20;;;2.10;;
8871;SDS011;4472;52.092;9.820;2023-08-06T16:29:17;2.10;;;2.00;;
8871;SDS011;4472;52.092;9.820;2023-08-06T16:32:05;2.17;;;2.00;;
8871;SDS011;4472;52.092;9.820;2023-08-06T16:34:52;1.90;;;1.80;;
8871;SDS011;4472;52.092;9.820;2023-08-06T16:37:39;2.10;;;2.00;;
8871;SDS011;4472;52.092;9.820;2023-08-06T16:40:27;2.00;;;1.90;;
8871;SDS011;4472;52.092;9.820;2023-08-06T16:43:14;2.20;;;2.00;;
8871;SDS011;4472;52.092;9.820;2023-08-06T16:46:02;2.00;;;1.90;;
8871;SDS011;4472;52.092;9.820;2023-08-06T16:48:49;1.90;;;1.80;;
8871;SDS011;4472;52.092;9.820;2023-08-06T16:51:37;2.27;;;2.13;;
8871;SDS011;4472;52.092;9.820;2023-08-06T16:54:24;3.00;;;2.30;;
8871;SDS011;4472;52.092;9.820;2023-08-06T16:57:11;2.30;;;2.20;;
8871;SDS011;4472;52.092;9.820;2023-08-06T16:59:59;2.50;;;2.30;;
8871;SDS011;4472;52.092;9.820;2023-08-06T17:02:47;2.70;;;2.50;;
8871;SDS011;4472;52.092;9.820;2023-08-06T17:05:34;2.53;;;2.40;;
8871;SDS011;4472;52.092;9.820;2023-08-06T17:08:22;2.90;;;2.40;;
8871;SDS011;4472;52.092;9.820;2023-08-06T17:11:09;2.53;;;2.33;;
8871;SDS011;4472;52.092;9.820;2023-08-06T17:13:56;2.70;;;2.50;;
8871;SDS011;4472;52.092;9.820;2023-08-06T17:16:43;3.20;;;2.87;;
8871;SDS011;4472;52.092;9.820;2023-08-06T17:19:31;2.80;;;2.60;;
8871;SDS011;4472;52.092;9.820;2023-08-06T17:22:19;2.50;;;2.40;;